sensor_id;sensor_type;location;lat;lon;timestamp;temperature;humidity
43185;DHT22;28803;52.308;19.096;2023-05-07T00:02:02;6.10;99.90
43185;DHT22;28803;52.308;19.096;2023-05-07T00:04:30;6.10;99.90
43185;DHT22;28803;52.308;19.096;2023-05-07T00:07:04;6.00;99.90
43185;DHT22;28803;52.308;19.096;2023-05-07T00:09:31;6.10;99.90
43185;DHT22;28803;52.308;19.096;2023-05-07T00:11:58;6.00;99.90
43185;DHT22;28803;52.308;19.096;2023-05-07T00:14:25;6.10;99.90
43185;DHT22;28803;52.308;19.096;2023-05-07T00:16:52;6.00;99.90
43185;DHT22;28803;52.308;19.096;2023-05-07T00:19:20;6.10;99.90
43185;DHT22;28803;52.308;19.096;2023-05-07T00:21:47;6.10;99.90
43185;DHT22;28803;52.308;19.096;2023-05-07T00:24:14;6.00;99.90
43185;DHT22;28803;52.308;19.096;2023-05-07T00:26:41;6.30;99.90
43185;DHT22;28803;52.308;19.096;2023-05-07T00:29:08;6.10;99.90
43185;DHT22;28803;52.308;19.096;2023-05-07T00:31:36;6.10;99.90
43185;DHT22;28803;52.308;19.096;2023-05-07T00:34:03;6.10;99.90
43185;DHT22;28803;52.308;19.096;2023-05-07T00:36:30;6.00;99.90
43185;DHT22;28803;52.308;19.096;2023-05-07T00:38:59;6.00;99.90
43185;DHT22;28803;52.308;19.096;2023-05-07T00:41:29;6.00;99.90
43185;DHT22;28803;52.308;19.096;2023-05-07T00:43:57;5.90;99.90
43185;DHT22;28803;52.308;19.096;2023-05-07T00:46:25;5.90;99.90
43185;DHT22;28803;52.308;19.096;2023-05-07T00:48:53;5.90;99.90
43185;DHT22;28803;52.308;19.096;2023-05-07T00:51:21;5.90;99.90
43185;DHT22;28803;52.308;19.096;2023-05-07T00:53:48;6.00;99.90
43185;DHT22;28803;52.308;19.096;2023-05-07T00:56:16;5.90;99.90
43185;DHT22;28803;52.308;19.096;2023-05-07T00:58:43;5.90;99.90
43185;DHT22;28803;52.308;19.096;2023-05-07T01:01:11;5.90;99.90
43185;DHT22;28803;52.308;19.096;2023-05-07T01:03:38;5.90;99.90
43185;DHT22;28803;52.308;19.096;2023-05-07T01:06:07;5.80;99.90
43185;DHT22;28803;52.308;19.096;2023-05-07T01:08:35;5.80;99.90
43185;DHT22;28803;52.308;19.096;2023-05-07T01:11:03;5.80;99.90
43185;DHT22;28803;52.308;19.096;2023-05-07T01:13:31;5.80;99.90
43185;DHT22;28803;52.308;19.096;2023-05-07T01:15:59;5.80;99.90
43185;DHT22;28803;52.308;19.096;2023-05-07T01:18:26;5.80;99.90
43185;DHT22;28803;52.308;19.096;2023-05-07T01:20:55;5.80;99.90
43185;DHT22;28803;52.308;19.096;2023-05-07T01:23:25;5.80;99.90
43185;DHT22;28803;52.308;19.096;2023-05-07T01:25:54;5.80;99.90
43185;DHT22;28803;52.308;19.096;2023-05-07T01:28:22;5.70;99.90
43185;DHT22;28803;52.308;19.096;2023-05-07T01:30:52;5.70;99.90
43185;DHT22;28803;52.308;19.096;2023-05-07T01:33:21;5.70;99.90
43185;DHT22;28803;52.308;19.096;2023-05-07T01:35:52;5.70;99.90
43185;DHT22;28803;52.308;19.096;2023-05-07T01:38:21;5.70;99.90
43185;DHT22;28803;52.308;19.096;2023-05-07T01:40:49;5.70;99.90
43185;DHT22;28803;52.308;19.096;2023-05-07T01:43:17;5.70;99.90
43185;DHT22;28803;52.308;19.096;2023-05-07T01:45:44;5.70;99.90
43185;DHT22;28803;52.308;19.096;2023-05-07T01:48:13;5.80;99.90
43185;DHT22;28803;52.308;19.096;2023-05-07T01:50:42;5.60;99.90
43185;DHT22;28803;52.308;19.096;2023-05-07T01:53:09;5.70;99.90
43185;DHT22;28803;52.308;19.096;2023-05-07T01:55:37;5.70;99.90
43185;DHT22;28803;52.308;19.096;2023-05-07T01:58:04;5.60;99.90
43185;DHT22;28803;52.308;19.096;2023-05-07T02:00:31;5.70;99.90
43185;DHT22;28803;52.308;19.096;2023-05-07T02:02:58;5.70;99.90
43185;DHT22;28803;52.308;19.096;2023-05-07T02:05:26;5.70;99.90
43185;DHT22;28803;52.308;19.096;2023-05-07T02:07:53;5.60;99.90
43185;DHT22;28803;52.308;19.096;2023-05-07T02:10:21;5.60;99.90
43185;DHT22;28803;52.308;19.096;2023-05-07T02:12:48;5.60;99.90
43185;DHT22;28803;52.308;19.096;2023-05-07T02:15:15;5.60;99.90
43185;DHT22;28803;52.308;19.096;2023-05-07T02:18:05;5.60;99.90
43185;DHT22;28803;52.308;19.096;2023-05-07T02:20:38;5.60;99.90
43185;DHT22;28803;52.308;19.096;2023-05-07T02:23:05;5.60;99.90
43185;DHT22;28803;52.308;19.096;2023-05-07T02:25:33;5.60;99.90
43185;DHT22;28803;52.308;19.096;2023-05-07T02:28:00;5.60;99.90
43185;DHT22;28803;52.308;19.096;2023-05-07T02:30:28;5.60;99.90
43185;DHT22;28803;52.308;19.096;2023-05-07T02:32:55;5.60;99.90
43185;DHT22;28803;52.308;19.096;2023-05-07T02:35:27;5.80;99.90
43185;DHT22;28803;52.308;19.096;2023-05-07T02:37:54;5.60;99.90
43185;DHT22;28803;52.308;19.096;2023-05-07T02:40:21;5.60;99.90
43185;DHT22;28803;52.308;19.096;2023-05-07T02:42:48;5.60;99.90
43185;DHT22;28803;52.308;19.096;2023-05-07T02:45:15;5.70;99.90
43185;DHT22;28803;52.308;19.096;2023-05-07T02:47:42;5.60;99.90
43185;DHT22;28803;52.308;19.096;2023-05-07T02:50:10;5.60;99.90
43185;DHT22;28803;52.308;19.096;2023-05-07T02:52:37;5.60;99.90
43185;DHT22;28803;52.308;19.096;2023-05-07T02:55:05;5.90;99.90
43185;DHT22;28803;52.308;19.096;2023-05-07T02:57:32;5.60;99.90
43185;DHT22;28803;52.308;19.096;2023-05-07T03:00:06;5.70;99.90
43185;DHT22;28803;52.308;19.096;2023-05-07T03:02:37;5.70;99.90
43185;DHT22;28803;52.308;19.096;2023-05-07T03:05:05;5.70;99.90
43185;DHT22;28803;52.308;19.096;2023-05-07T03:07:33;5.70;99.90
43185;DHT22;28803;52.308;19.096;2023-05-07T03:10:00;5.70;99.90
43185;DHT22;28803;52.308;19.096;2023-05-07T03:12:27;5.70;99.90
43185;DHT22;28803;52.308;19.096;2023-05-07T03:14:55;5.70;99.90
43185;DHT22;28803;52.308;19.096;2023-05-07T03:17:22;5.80;99.90
43185;DHT22;28803;52.308;19.096;2023-05-07T03:19:50;5.80;99.90
43185;DHT22;28803;52.308;19.096;2023-05-07T03:22:16;5.80;99.90
43185;DHT22;28803;52.308;19.096;2023-05-07T03:24:44;5.80;99.90
43185;DHT22;28803;52.308;19.096;2023-05-07T03:27:11;5.80;99.90
43185;DHT22;28803;52.308;19.096;2023-05-07T03:29:38;5.80;99.90
43185;DHT22;28803;52.308;19.096;2023-05-07T03:32:06;5.90;99.90
43185;DHT22;28803;52.308;19.096;2023-05-07T03:34:33;5.90;99.90
43185;DHT22;28803;52.308;19.096;2023-05-07T03:37:00;5.90;99.90
43185;DHT22;28803;52.308;19.096;2023-05-07T03:39:27;6.00;99.90
43185;DHT22;28803;52.308;19.096;2023-05-07T03:41:54;6.00;99.90
43185;DHT22;28803;52.308;19.096;2023-05-07T03:44:22;6.00;99.90
43185;DHT22;28803;52.308;19.096;2023-05-07T03:46:49;6.00;99.90
43185;DHT22;28803;52.308;19.096;2023-05-07T03:49:17;6.00;99.90
43185;DHT22;28803;52.308;19.096;2023-05-07T03:51:44;5.90;99.90
43185;DHT22;28803;52.308;19.096;2023-05-07T03:54:11;6.00;99.90
43185;DHT22;28803;52.308;19.096;2023-05-07T03:56:38;5.90;99.90
43185;DHT22;28803;52.308;19.096;2023-05-07T03:59:05;6.00;99.90
43185;DHT22;28803;52.308;19.096;2023-05-07T04:01:32;5.90;99.90
43185;DHT22;28803;52.308;19.096;2023-05-07T04:04:00;6.00;99.90
43185;DHT22;28803;52.308;19.096;2023-05-07T04:06:27;6.00;99.90
43185;DHT22;28803;52.308;19.096;2023-05-07T04:08:54;6.00;99.90
43185;DHT22;28803;52.308;19.096;2023-05-07T04:11:21;6.10;99.90
43185;DHT22;28803;52.308;19.096;2023-05-07T04:13:49;6.10;99.90
43185;DHT22;28803;52.308;19.096;2023-05-07T04:16:16;6.10;99.90
43185;DHT22;28803;52.308;19.096;2023-05-07T04:18:43;6.10;99.90
43185;DHT22;28803;52.308;19.096;2023-05-07T04:21:18;6.20;99.90
43185;DHT22;28803;52.308;19.096;2023-05-07T04:23:49;6.20;99.90
43185;DHT22;28803;52.308;19.096;2023-05-07T04:26:16;6.20;99.90
43185;DHT22;28803;52.308;19.096;2023-05-07T04:28:44;6.30;99.90
43185;DHT22;28803;52.308;19.096;2023-05-07T04:31:11;6.20;99.90
43185;DHT22;28803;52.308;19.096;2023-05-07T04:33:39;6.20;99.90
43185;DHT22;28803;52.308;19.096;2023-05-07T04:36:06;6.20;99.90
43185;DHT22;28803;52.308;19.096;2023-05-07T04:38:33;6.20;99.90
43185;DHT22;28803;52.308;19.096;2023-05-07T04:41:05;6.20;99.90
43185;DHT22;28803;52.308;19.096;2023-05-07T04:43:33;6.20;99.90
43185;DHT22;28803;52.308;19.096;2023-05-07T04:46:00;6.20;99.90
43185;DHT22;28803;52.308;19.096;2023-05-07T04:48:27;6.20;99.90
43185;DHT22;28803;52.308;19.096;2023-05-07T04:50:55;6.30;99.90
43185;DHT22;28803;52.308;19.096;2023-05-07T04:53:23;6.30;99.90
43185;DHT22;28803;52.308;19.096;2023-05-07T04:55:55;6.30;99.90
43185;DHT22;28803;52.308;19.096;2023-05-07T04:58:24;6.40;99.90
43185;DHT22;28803;52.308;19.096;2023-05-07T05:00:51;6.40;99.90
43185;DHT22;28803;52.308;19.096;2023-05-07T05:03:18;6.50;99.90
43185;DHT22;28803;52.308;19.096;2023-05-07T05:05:45;6.50;99.90
43185;DHT22;28803;52.308;19.096;2023-05-07T05:08:13;6.60;99.90
43185;DHT22;28803;52.308;19.096;2023-05-07T05:10:40;6.90;99.90
43185;DHT22;28803;52.308;19.096;2023-05-07T05:13:09;6.70;99.90
43185;DHT22;28803;52.308;19.096;2023-05-07T05:15:36;6.80;99.90
43185;DHT22;28803;52.308;19.096;2023-05-07T05:18:03;6.70;99.90
43185;DHT22;28803;52.308;19.096;2023-05-07T05:20:30;6.90;99.90
43185;DHT22;28803;52.308;19.096;2023-05-07T05:22:58;7.00;99.90
43185;DHT22;28803;52.308;19.096;2023-05-07T05:25:25;6.90;99.90
43185;DHT22;28803;52.308;19.096;2023-05-07T05:27:52;6.90;99.90
43185;DHT22;28803;52.308;19.096;2023-05-07T05:30:20;7.00;99.90
43185;DHT22;28803;52.308;19.096;2023-05-07T05:32:49;7.20;99.90
43185;DHT22;28803;52.308;19.096;2023-05-07T05:35:16;7.30;99.90
43185;DHT22;28803;52.308;19.096;2023-05-07T05:37:43;7.30;99.90
43185;DHT22;28803;52.308;19.096;2023-05-07T05:40:11;7.30;99.90
43185;DHT22;28803;52.308;19.096;2023-05-07T05:42:39;7.30;99.90
43185;DHT22;28803;52.308;19.096;2023-05-07T05:45:07;7.30;99.90
43185;DHT22;28803;52.308;19.096;2023-05-07T05:47:34;7.30;99.90
43185;DHT22;28803;52.308;19.096;2023-05-07T05:50:02;7.20;99.90
43185;DHT22;28803;52.308;19.096;2023-05-07T05:52:29;7.30;99.90
43185;DHT22;28803;52.308;19.096;2023-05-07T05:54:57;7.40;99.90
43185;DHT22;28803;52.308;19.096;2023-05-07T05:57:24;7.30;99.90
43185;DHT22;28803;52.308;19.096;2023-05-07T05:59:54;7.40;99.90
43185;DHT22;28803;52.308;19.096;2023-05-07T06:02:22;7.30;99.90
43185;DHT22;28803;52.308;19.096;2023-05-07T06:04:49;7.40;99.90
43185;DHT22;28803;52.308;19.096;2023-05-07T06:07:17;7.40;99.90
43185;DHT22;28803;52.308;19.096;2023-05-07T06:09:44;7.30;99.90
43185;DHT22;28803;52.308;19.096;2023-05-07T06:12:11;7.30;99.90
43185;DHT22;28803;52.308;19.096;2023-05-07T06:14:38;7.40;99.90
43185;DHT22;28803;52.308;19.096;2023-05-07T06:17:06;7.50;99.90
43185;DHT22;28803;52.308;19.096;2023-05-07T06:19:33;7.50;99.90
43185;DHT22;28803;52.308;19.096;2023-05-07T06:22:02;7.80;99.90
43185;DHT22;28803;52.308;19.096;2023-05-07T06:24:29;7.90;96.60
43185;DHT22;28803;52.308;19.096;2023-05-07T06:26:56;8.20;99.70
43185;DHT22;28803;52.308;19.096;2023-05-07T06:29:25;8.40;96.80
43185;DHT22;28803;52.308;19.096;2023-05-07T06:31:53;8.50;99.20
43185;DHT22;28803;52.308;19.096;2023-05-07T06:34:20;8.60;96.60
43185;DHT22;28803;52.308;19.096;2023-05-07T06:36:48;8.70;97.00
43185;DHT22;28803;52.308;19.096;2023-05-07T06:39:15;8.50;96.10
43185;DHT22;28803;52.308;19.096;2023-05-07T06:41:42;8.30;96.60
43185;DHT22;28803;52.308;19.096;2023-05-07T06:44:09;8.20;97.10
43185;DHT22;28803;52.308;19.096;2023-05-07T06:46:37;8.40;96.90
43185;DHT22;28803;52.308;19.096;2023-05-07T06:49:04;8.50;95.40
43185;DHT22;28803;52.308;19.096;2023-05-07T06:51:32;8.80;93.80
43185;DHT22;28803;52.308;19.096;2023-05-07T06:53:59;8.80;94.70
43185;DHT22;28803;52.308;19.096;2023-05-07T06:56:26;9.40;94.60
43185;DHT22;28803;52.308;19.096;2023-05-07T06:58:53;9.10;92.70
43185;DHT22;28803;52.308;19.096;2023-05-07T07:01:21;8.70;94.80
43185;DHT22;28803;52.308;19.096;2023-05-07T07:03:48;8.60;97.60
43185;DHT22;28803;52.308;19.096;2023-05-07T07:06:16;8.70;96.60
43185;DHT22;28803;52.308;19.096;2023-05-07T07:08:43;8.70;96.30
43185;DHT22;28803;52.308;19.096;2023-05-07T07:11:10;8.80;97.60
43185;DHT22;28803;52.308;19.096;2023-05-07T07:13:37;8.90;97.20
43185;DHT22;28803;52.308;19.096;2023-05-07T07:16:05;9.00;96.90
43185;DHT22;28803;52.308;19.096;2023-05-07T07:18:32;9.30;97.00
43185;DHT22;28803;52.308;19.096;2023-05-07T07:20:59;10.70;83.50
43185;DHT22;28803;52.308;19.096;2023-05-07T07:23:26;11.50;73.00
43185;DHT22;28803;52.308;19.096;2023-05-07T07:25:54;12.40;99.90
43185;DHT22;28803;52.308;19.096;2023-05-07T07:28:22;11.60;1.00
43185;DHT22;28803;52.308;19.096;2023-05-07T07:30:49;10.70;99.90
43185;DHT22;28803;52.308;19.096;2023-05-07T07:33:17;10.30;1.00
43185;DHT22;28803;52.308;19.096;2023-05-07T07:35:44;9.70;5.40
43185;DHT22;28803;52.308;19.096;2023-05-07T07:38:11;9.30;99.90
43185;DHT22;28803;52.308;19.096;2023-05-07T07:40:39;9.20;99.90
43185;DHT22;28803;52.308;19.096;2023-05-07T07:43:06;8.90;99.90
43185;DHT22;28803;52.308;19.096;2023-05-07T07:45:34;8.90;1.00
43185;DHT22;28803;52.308;19.096;2023-05-07T07:48:01;9.20;1.00
43185;DHT22;28803;52.308;19.096;2023-05-07T07:50:30;9.40;1.00
43185;DHT22;28803;52.308;19.096;2023-05-07T07:53:11;9.60;99.90
43185;DHT22;28803;52.308;19.096;2023-05-07T07:55:41;9.70;99.90
43185;DHT22;28803;52.308;19.096;2023-05-07T07:58:08;10.10;99.90
43185;DHT22;28803;52.308;19.096;2023-05-07T08:00:36;10.50;96.20
43185;DHT22;28803;52.308;19.096;2023-05-07T08:03:03;10.30;99.90
43185;DHT22;28803;52.308;19.096;2023-05-07T08:05:32;9.90;99.90
43185;DHT22;28803;52.308;19.096;2023-05-07T08:07:59;9.80;1.00
43185;DHT22;28803;52.308;19.096;2023-05-07T08:10:27;10.10;99.90
43185;DHT22;28803;52.308;19.096;2023-05-07T08:12:54;10.30;1.00
43185;DHT22;28803;52.308;19.096;2023-05-07T08:15:21;11.00;1.00
43185;DHT22;28803;52.308;19.096;2023-05-07T08:17:48;11.60;1.00
43185;DHT22;28803;52.308;19.096;2023-05-07T08:20:16;11.70;99.90
43185;DHT22;28803;52.308;19.096;2023-05-07T08:22:43;11.00;99.90
43185;DHT22;28803;52.308;19.096;2023-05-07T08:25:10;11.20;99.90
43185;DHT22;28803;52.308;19.096;2023-05-07T08:27:37;13.30;1.00
43185;DHT22;28803;52.308;19.096;2023-05-07T08:30:05;14.20;1.00
43185;DHT22;28803;52.308;19.096;2023-05-07T08:32:32;14.70;1.00
43185;DHT22;28803;52.308;19.096;2023-05-07T08:35:00;15.60;99.90
43185;DHT22;28803;52.308;19.096;2023-05-07T08:37:27;15.50;99.90
43185;DHT22;28803;52.308;19.096;2023-05-07T08:39:54;15.50;99.90
43185;DHT22;28803;52.308;19.096;2023-05-07T08:42:23;16.00;99.90
43185;DHT22;28803;52.308;19.096;2023-05-07T08:44:51;16.60;99.90
43185;DHT22;28803;52.308;19.096;2023-05-07T08:47:23;17.00;1.00
43185;DHT22;28803;52.308;19.096;2023-05-07T08:49:54;15.90;1.00
43185;DHT22;28803;52.308;19.096;2023-05-07T08:52:22;14.20;1.00
43185;DHT22;28803;52.308;19.096;2023-05-07T08:54:50;12.90;99.90
43185;DHT22;28803;52.308;19.096;2023-05-07T08:57:17;12.40;99.90
43185;DHT22;28803;52.308;19.096;2023-05-07T08:59:44;13.40;99.90
43185;DHT22;28803;52.308;19.096;2023-05-07T09:02:11;12.70;99.90
43185;DHT22;28803;52.308;19.096;2023-05-07T09:04:39;12.50;99.90
43185;DHT22;28803;52.308;19.096;2023-05-07T09:07:06;14.20;99.90
43185;DHT22;28803;52.308;19.096;2023-05-07T09:09:34;14.60;1.00
43185;DHT22;28803;52.308;19.096;2023-05-07T09:12:01;13.60;1.00
43185;DHT22;28803;52.308;19.096;2023-05-07T09:14:31;12.50;26.50
43185;DHT22;28803;52.308;19.096;2023-05-07T09:16:58;12.90;99.90
43185;DHT22;28803;52.308;19.096;2023-05-07T09:19:27;14.00;1.00
43185;DHT22;28803;52.308;19.096;2023-05-07T09:22:05;13.90;1.00
43185;DHT22;28803;52.308;19.096;2023-05-07T09:24:34;14.20;1.00
43185;DHT22;28803;52.308;19.096;2023-05-07T09:27:07;15.20;99.90
43185;DHT22;28803;52.308;19.096;2023-05-07T09:29:36;15.60;99.90
43185;DHT22;28803;52.308;19.096;2023-05-07T09:32:07;14.40;99.90
43185;DHT22;28803;52.308;19.096;2023-05-07T09:34:35;13.40;99.90
43185;DHT22;28803;52.308;19.096;2023-05-07T09:37:04;14.50;99.90
43185;DHT22;28803;52.308;19.096;2023-05-07T09:39:42;15.80;99.90
43185;DHT22;28803;52.308;19.096;2023-05-07T09:42:10;16.80;99.90
43185;DHT22;28803;52.308;19.096;2023-05-07T09:44:38;15.80;99.90
43185;DHT22;28803;52.308;19.096;2023-05-07T09:47:07;16.90;99.90
43185;DHT22;28803;52.308;19.096;2023-05-07T09:49:36;17.70;99.90
43185;DHT22;28803;52.308;19.096;2023-05-07T09:52:05;18.30;99.90
43185;DHT22;28803;52.308;19.096;2023-05-07T09:54:34;18.50;99.90
43185;DHT22;28803;52.308;19.096;2023-05-07T09:57:02;19.30;99.90
43185;DHT22;28803;52.308;19.096;2023-05-07T09:59:31;20.30;99.90
43185;DHT22;28803;52.308;19.096;2023-05-07T10:02:01;20.10;99.90
43185;DHT22;28803;52.308;19.096;2023-05-07T10:04:31;19.20;99.90
43185;DHT22;28803;52.308;19.096;2023-05-07T10:06:59;18.70;99.90
43185;DHT22;28803;52.308;19.096;2023-05-07T10:09:26;18.10;99.90
43185;DHT22;28803;52.308;19.096;2023-05-07T10:11:54;16.00;99.90
43185;DHT22;28803;52.308;19.096;2023-05-07T10:14:22;14.40;99.90
43185;DHT22;28803;52.308;19.096;2023-05-07T10:16:50;14.00;99.90
43185;DHT22;28803;52.308;19.096;2023-05-07T10:19:18;14.10;99.90
43185;DHT22;28803;52.308;19.096;2023-05-07T10:21:54;14.40;99.90
43185;DHT22;28803;52.308;19.096;2023-05-07T10:24:31;14.70;99.90
43185;DHT22;28803;52.308;19.096;2023-05-07T10:27:01;14.40;99.90
43185;DHT22;28803;52.308;19.096;2023-05-07T10:30:08;13.60;99.90
43185;DHT22;28803;52.308;19.096;2023-05-07T10:33:01;13.60;99.90
43185;DHT22;28803;52.308;19.096;2023-05-07T10:35:39;13.60;99.90
43185;DHT22;28803;52.308;19.096;2023-05-07T10:38:08;13.40;99.90
43185;DHT22;28803;52.308;19.096;2023-05-07T10:40:36;13.30;99.90
43185;DHT22;28803;52.308;19.096;2023-05-07T10:43:04;13.10;99.90
43185;DHT22;28803;52.308;19.096;2023-05-07T10:45:37;12.30;99.90
43185;DHT22;28803;52.308;19.096;2023-05-07T10:48:13;12.20;99.90
43185;DHT22;28803;52.308;19.096;2023-05-07T10:50:44;12.40;99.90
43185;DHT22;28803;52.308;19.096;2023-05-07T10:55:47;12.60;99.90
43185;DHT22;28803;52.308;19.096;2023-05-07T11:01:00;13.10;99.90
43185;DHT22;28803;52.308;19.096;2023-05-07T11:03:28;12.90;99.90
43185;DHT22;28803;52.308;19.096;2023-05-07T11:06:10;12.60;99.90
43185;DHT22;28803;52.308;19.096;2023-05-07T11:08:56;12.60;99.90
43185;DHT22;28803;52.308;19.096;2023-05-07T11:11:56;12.50;99.90
43185;DHT22;28803;52.308;19.096;2023-05-07T11:14:45;12.30;99.90
43185;DHT22;28803;52.308;19.096;2023-05-07T11:17:13;12.10;99.90
43185;DHT22;28803;52.308;19.096;2023-05-07T11:19:54;12.10;99.90
43185;DHT22;28803;52.308;19.096;2023-05-07T11:22:40;12.10;99.90
43185;DHT22;28803;52.308;19.096;2023-05-07T11:25:07;12.30;99.90
43185;DHT22;28803;52.308;19.096;2023-05-07T11:27:35;12.10;99.90
43185;DHT22;28803;52.308;19.096;2023-05-07T11:30:03;12.10;99.90
43185;DHT22;28803;52.308;19.096;2023-05-07T11:32:32;12.10;99.90
43185;DHT22;28803;52.308;19.096;2023-05-07T11:35:00;12.10;99.90
43185;DHT22;28803;52.308;19.096;2023-05-07T11:37:28;12.40;99.90
43185;DHT22;28803;52.308;19.096;2023-05-07T11:40:04;12.50;99.90
43185;DHT22;28803;52.308;19.096;2023-05-07T11:42:34;12.50;99.90
43185;DHT22;28803;52.308;19.096;2023-05-07T11:45:02;12.50;99.90
43185;DHT22;28803;52.308;19.096;2023-05-07T11:47:31;12.40;99.90
43185;DHT22;28803;52.308;19.096;2023-05-07T11:50:06;12.70;99.90
43185;DHT22;28803;52.308;19.096;2023-05-07T11:52:35;12.80;99.90
43185;DHT22;28803;52.308;19.096;2023-05-07T11:55:03;12.80;99.90
43185;DHT22;28803;52.308;19.096;2023-05-07T11:57:33;12.90;99.90
43185;DHT22;28803;52.308;19.096;2023-05-07T12:00:01;13.10;99.90
43185;DHT22;28803;52.308;19.096;2023-05-07T12:02:32;13.10;99.90
43185;DHT22;28803;52.308;19.096;2023-05-07T12:05:02;13.20;99.90
43185;DHT22;28803;52.308;19.096;2023-05-07T12:07:30;13.30;99.90
43185;DHT22;28803;52.308;19.096;2023-05-07T12:09:58;13.30;99.90
43185;DHT22;28803;52.308;19.096;2023-05-07T12:12:26;13.30;99.90
43185;DHT22;28803;52.308;19.096;2023-05-07T12:14:54;13.10;99.90
43185;DHT22;28803;52.308;19.096;2023-05-07T12:17:21;13.00;99.90
43185;DHT22;28803;52.308;19.096;2023-05-07T12:19:49;12.80;99.90
43185;DHT22;28803;52.308;19.096;2023-05-07T12:22:18;12.60;99.90
43185;DHT22;28803;52.308;19.096;2023-05-07T12:24:47;12.30;99.90
43185;DHT22;28803;52.308;19.096;2023-05-07T12:27:16;12.20;99.90
43185;DHT22;28803;52.308;19.096;2023-05-07T12:29:47;12.10;99.90
43185;DHT22;28803;52.308;19.096;2023-05-07T12:32:20;11.90;99.90
43185;DHT22;28803;52.308;19.096;2023-05-07T12:34:51;11.90;99.90
43185;DHT22;28803;52.308;19.096;2023-05-07T12:37:26;12.10;99.90
43185;DHT22;28803;52.308;19.096;2023-05-07T12:40:08;12.30;99.90
43185;DHT22;28803;52.308;19.096;2023-05-07T12:42:37;12.60;99.90
43185;DHT22;28803;52.308;19.096;2023-05-07T12:45:12;12.90;99.90
43185;DHT22;28803;52.308;19.096;2023-05-07T12:47:46;13.30;99.90
43185;DHT22;28803;52.308;19.096;2023-05-07T12:50:15;13.60;99.90
43185;DHT22;28803;52.308;19.096;2023-05-07T12:52:44;13.70;99.90
43185;DHT22;28803;52.308;19.096;2023-05-07T12:55:14;13.50;99.90
43185;DHT22;28803;52.308;19.096;2023-05-07T12:57:49;13.40;99.90
43185;DHT22;28803;52.308;19.096;2023-05-07T13:00:39;13.40;99.90
43185;DHT22;28803;52.308;19.096;2023-05-07T13:03:07;13.70;99.90
43185;DHT22;28803;52.308;19.096;2023-05-07T13:05:34;13.80;99.90
43185;DHT22;28803;52.308;19.096;2023-05-07T13:08:02;13.80;99.90
43185;DHT22;28803;52.308;19.096;2023-05-07T13:10:29;13.60;99.90
43185;DHT22;28803;52.308;19.096;2023-05-07T13:12:56;13.30;99.90
43185;DHT22;28803;52.308;19.096;2023-05-07T13:15:24;13.00;99.90
43185;DHT22;28803;52.308;19.096;2023-05-07T13:17:51;12.60;99.90
43185;DHT22;28803;52.308;19.096;2023-05-07T13:20:19;12.50;99.90
43185;DHT22;28803;52.308;19.096;2023-05-07T13:22:46;12.60;99.90
43185;DHT22;28803;52.308;19.096;2023-05-07T13:25:13;12.80;99.90
43185;DHT22;28803;52.308;19.096;2023-05-07T13:27:41;12.90;99.90
43185;DHT22;28803;52.308;19.096;2023-05-07T13:30:08;13.00;99.90
43185;DHT22;28803;52.308;19.096;2023-05-07T13:32:36;13.20;99.90
43185;DHT22;28803;52.308;19.096;2023-05-07T13:35:03;13.30;99.90
43185;DHT22;28803;52.308;19.096;2023-05-07T13:37:31;13.60;99.90
43185;DHT22;28803;52.308;19.096;2023-05-07T13:39:58;13.70;99.90
43185;DHT22;28803;52.308;19.096;2023-05-07T13:42:26;13.50;99.90
43185;DHT22;28803;52.308;19.096;2023-05-07T13:44:53;13.50;99.90
43185;DHT22;28803;52.308;19.096;2023-05-07T13:47:21;13.50;99.90
43185;DHT22;28803;52.308;19.096;2023-05-07T13:49:50;13.50;99.90
43185;DHT22;28803;52.308;19.096;2023-05-07T13:52:18;13.60;99.90
43185;DHT22;28803;52.308;19.096;2023-05-07T13:54:45;13.90;99.90
43185;DHT22;28803;52.308;19.096;2023-05-07T13:57:13;14.70;99.90
43185;DHT22;28803;52.308;19.096;2023-05-07T13:59:41;16.70;99.90
43185;DHT22;28803;52.308;19.096;2023-05-07T14:02:08;17.60;99.90
43185;DHT22;28803;52.308;19.096;2023-05-07T14:04:37;16.80;99.90
43185;DHT22;28803;52.308;19.096;2023-05-07T14:07:05;15.40;99.90
43185;DHT22;28803;52.308;19.096;2023-05-07T14:09:32;14.70;99.90
43185;DHT22;28803;52.308;19.096;2023-05-07T14:12:00;14.40;99.90
43185;DHT22;28803;52.308;19.096;2023-05-07T14:14:28;14.00;99.90
43185;DHT22;28803;52.308;19.096;2023-05-07T14:16:56;13.70;99.90
43185;DHT22;28803;52.308;19.096;2023-05-07T14:19:23;13.90;99.90
43185;DHT22;28803;52.308;19.096;2023-05-07T14:21:51;14.60;99.90
43185;DHT22;28803;52.308;19.096;2023-05-07T14:24:19;16.10;99.90
43185;DHT22;28803;52.308;19.096;2023-05-07T14:27:00;17.60;99.90
43185;DHT22;28803;52.308;19.096;2023-05-07T14:29:28;17.90;99.90
43185;DHT22;28803;52.308;19.096;2023-05-07T14:31:55;17.50;99.90
43185;DHT22;28803;52.308;19.096;2023-05-07T14:34:23;16.30;99.90
43185;DHT22;28803;52.308;19.096;2023-05-07T14:36:51;16.50;99.90
43185;DHT22;28803;52.308;19.096;2023-05-07T14:39:19;15.90;99.90
43185;DHT22;28803;52.308;19.096;2023-05-07T14:41:47;15.20;96.10
43185;DHT22;28803;52.308;19.096;2023-05-07T14:44:14;15.30;99.90
43185;DHT22;28803;52.308;19.096;2023-05-07T14:46:42;15.40;99.90
43185;DHT22;28803;52.308;19.096;2023-05-07T14:49:09;15.60;99.90
43185;DHT22;28803;52.308;19.096;2023-05-07T14:51:45;14.80;99.90
43185;DHT22;28803;52.308;19.096;2023-05-07T14:54:14;14.20;99.90
43185;DHT22;28803;52.308;19.096;2023-05-07T14:56:45;13.60;99.90
43185;DHT22;28803;52.308;19.096;2023-05-07T14:59:12;16.60;99.90
43185;DHT22;28803;52.308;19.096;2023-05-07T15:01:40;13.50;99.90
43185;DHT22;28803;52.308;19.096;2023-05-07T15:04:12;14.00;99.90
43185;DHT22;28803;52.308;19.096;2023-05-07T15:06:39;14.50;99.90
43185;DHT22;28803;52.308;19.096;2023-05-07T15:09:07;14.60;99.90
43185;DHT22;28803;52.308;19.096;2023-05-07T15:11:37;14.70;99.90
43185;DHT22;28803;52.308;19.096;2023-05-07T15:14:05;14.40;99.90
43185;DHT22;28803;52.308;19.096;2023-05-07T15:16:34;14.00;99.90
43185;DHT22;28803;52.308;19.096;2023-05-07T15:19:08;13.70;99.90
43185;DHT22;28803;52.308;19.096;2023-05-07T15:22:15;13.50;99.90
43185;DHT22;28803;52.308;19.096;2023-05-07T15:24:42;13.20;99.90
43185;DHT22;28803;52.308;19.096;2023-05-07T15:27:10;12.90;99.90
43185;DHT22;28803;52.308;19.096;2023-05-07T15:29:37;12.60;99.90
43185;DHT22;28803;52.308;19.096;2023-05-07T15:32:05;12.50;99.90
43185;DHT22;28803;52.308;19.096;2023-05-07T15:34:32;12.50;99.90
43185;DHT22;28803;52.308;19.096;2023-05-07T15:36:59;12.60;99.90
43185;DHT22;28803;52.308;19.096;2023-05-07T15:39:26;12.80;99.90
43185;DHT22;28803;52.308;19.096;2023-05-07T15:41:53;13.00;99.90